Time;durP1;ratioP1;P1;durP2;ratioP2;P2;SDS_P1;SDS_P2;PMS_P1;PMS_P2;Temp;Humidity;BMP_temperature;BMP_pressure;BME280_temperature;BME280_humidity;BME280_pressure;Samples;Min_cycle;Max_cycle;Signal;HPM_P1;HPM_P2
2021/06/25 00:01:42;;;;;;;26.50;24.00;;;16.80;99.90;;;;;;4980869;28;20461;-56
2021/06/25 00:04:12;;;;;;;25.43;23.20;;;16.70;99.90;;;;;;4970028;28;20489;-56
2021/06/25 00:06:39;;;;;;;27.07;24.10;;;16.60;99.90;;;;;;4977087;28;20458;-55
2021/06/25 00:09:09;;;;;;;26.63;23.77;;;16.60;99.90;;;;;;4980599;28;20466;-56
2021/06/25 00:50:05;;;;;;;28.90;26.00;;;16.20;99.90;;;;;;4906360;29;20615;-56
2021/06/25 00:52:33;;;;;;;29.07;26.37;;;16.20;99.90;;;;;;4903821;29;21028;-56
2021/06/25 00:55:00;;;;;;;32.33;28.90;;;16.30;99.90;;;;;;4904549;29;20870;-49
2021/06/25 00:57:27;;;;;;;31.93;28.73;;;16.30;99.90;;;;;;4903900;29;20500;-51
2021/06/25 00:59:57;;;;;;;32.60;29.23;;;16.30;99.90;;;;;;4915796;29;20496;-50
2021/06/25 01:02:24;;;;;;;32.93;28.73;;;16.30;99.90;;;;;;4922169;29;20508;-49
2021/06/25 01:04:59;;;;;;;30.77;27.77;;;16.20;99.90;;;;;;4918133;29;20480;-51
2021/06/25 01:07:30;;;;;;;31.10;28.13;;;16.20;99.90;;;;;;4915276;29;20807;-50
2021/06/25 01:09:58;;;;;;;32.80;29.40;;;16.20;99.90;;;;;;4907371;29;20568;-52
2021/06/25 01:12:26;;;;;;;30.30;27.37;;;16.20;99.90;;;;;;4908612;29;20512;-56
2021/06/25 01:14:54;;;;;;;33.40;29.77;;;16.10;99.90;;;;;;4906621;29;20468;-52
2021/06/25 01:17:32;;;;;;;33.90;28.77;;;16.10;99.90;;;;;;4904780;29;20759;-55
2021/06/25 01:20:00;;;;;;;32.60;28.90;;;16.10;99.90;;;;;;4916697;29;20475;-48
2021/06/25 01:22:34;;;;;;;32.60;29.50;;;16.00;99.90;;;;;;4921845;29;20914;-54
2021/06/25 01:25:04;;;;;;;33.33;29.93;;;15.90;99.90;;;;;;4908640;29;20858;-52
2021/06/25 01:27:32;;;;;;;35.43;31.63;;;15.80;99.90;;;;;;4902849;29;20469;-50
2021/06/25 01:29:59;;;;;;;35.47;30.43;;;15.80;99.90;;;;;;4915477;29;20544;-49
2021/06/25 01:32:27;;;;;;;33.40;30.23;;;15.70;99.90;;;;;;4921570;29;20512;-53
2021/06/25 01:34:54;;;;;;;34.23;30.93;;;15.70;99.90;;;;;;4920236;29;20559;-50
2021/06/25 01:37:21;;;;;;;31.43;28.33;;;15.60;99.90;;;;;;4906274;29;20507;-53
2021/06/25 01:39:51;;;;;;;34.03;30.37;;;15.60;99.90;;;;;;4911294;29;20471;-53
2021/06/25 01:42:18;;;;;;;33.07;29.67;;;15.60;99.90;;;;;;4903920;29;20473;-49
2021/06/25 01:44:46;;;;;;;36.53;31.97;;;15.60;99.90;;;;;;4904854;29;20766;-49
2021/06/25 01:47:19;;;;;;;35.10;31.17;;;15.60;99.90;;;;;;4904668;29;20448;-55
2021/06/25 01:49:46;;;;;;;33.07;29.60;;;15.50;99.90;;;;;;4937083;29;20504;-56
2021/06/25 01:52:17;;;;;;;34.37;30.80;;;15.50;99.90;;;;;;4939141;29;20508;-56
2021/06/25 01:54:45;;;;;;;35.70;31.90;;;15.50;99.90;;;;;;4936424;29;20507;-53
2021/06/25 01:57:13;;;;;;;33.03;29.83;;;15.50;99.90;;;;;;4921833;29;20476;-54
2021/06/25 01:59:41;;;;;;;34.30;30.77;;;15.40;99.90;;;;;;4931065;29;20471;-56
2021/06/25 02:02:09;;;;;;;35.43;30.97;;;15.30;99.90;;;;;;4940277;29;20438;-54
2021/06/25 02:04:36;;;;;;;34.03;30.63;;;15.30;99.90;;;;;;4927166;29;20486;-52
2021/06/25 02:07:04;;;;;;;35.43;31.70;;;15.20;99.90;;;;;;4928957;29;20475;-54
2021/06/25 02:09:31;;;;;;;35.37;31.30;;;15.10;99.90;;;;;;4922262;29;20469;-49
2021/06/25 02:11:58;;;;;;;35.50;31.67;;;15.10;99.90;;;;;;4921565;29;20468;-52
2021/06/25 02:14:27;;;;;;;36.60;32.77;;;15.10;99.90;;;;;;4921282;29;20472;-54
2021/06/25 02:16:54;;;;;;;36.17;32.27;;;15.00;99.90;;;;;;4921430;29;20506;-52
2021/06/25 02:19:21;;;;;;;37.43;33.63;;;14.90;99.90;;;;;;4921245;29;20868;-51
2021/06/25 02:21:48;;;;;;;38.97;33.97;;;15.00;99.90;;;;;;4925461;29;20464;-52
2021/06/25 02:24:16;;;;;;;37.20;33.30;;;14.90;99.90;;;;;;4921260;29;20477;-49
2021/06/25 02:26:43;;;;;;;36.70;32.77;;;14.90;99.90;;;;;;4921469;29;20483;-52
2021/06/25 02:29:10;;;;;;;37.60;33.57;;;14.80;99.90;;;;;;4927620;29;20476;-49
2021/06/25 02:31:42;;;;;;;35.37;31.73;;;14.70;99.90;;;;;;4940005;29;20877;-49
2021/06/25 02:34:11;;;;;;;37.87;32.40;;;14.70;99.90;;;;;;4939890;29;20503;-53
2021/06/25 02:36:39;;;;;;;37.40;33.43;;;14.60;99.90;;;;;;4939919;29;20475;-55
2021/06/25 02:39:07;;;;;;;38.60;34.57;;;14.70;99.90;;;;;;4935163;29;20483;-53
2021/06/25 02:41:34;;;;;;;39.30;33.70;;;14.70;99.90;;;;;;4921298;29;20479;-50
2021/06/25 02:44:01;;;;;;;39.33;33.80;;;14.60;99.90;;;;;;4921210;29;20473;-49
2021/06/25 02:46:28;;;;;;;40.07;35.83;;;14.60;99.90;;;;;;4921072;29;20990;-46
2021/06/25 02:48:57;;;;;;;36.97;33.03;;;14.50;99.90;;;;;;4920927;29;20507;-46
2021/06/25 02:51:24;;;;;;;42.53;34.53;;;14.40;99.90;;;;;;4921445;29;20496;-46
2021/06/25 02:53:51;;;;;;;38.33;34.23;;;14.40;99.90;;;;;;4921760;29;20504;-54
2021/06/25 02:56:19;;;;;;;40.07;33.33;;;14.40;99.90;;;;;;4921214;29;20479;-47
2021/06/25 02:58:46;;;;;;;37.70;33.60;;;14.30;99.90;;;;;;4921771;29;20901;-46
2021/06/25 03:01:13;;;;;;;37.63;33.73;;;14.20;99.90;;;;;;4938775;29;20780;-46
2021/06/25 03:03:40;;;;;;;35.67;31.90;;;14.20;99.90;;;;;;4930638;29;20566;-51
2021/06/25 03:06:09;;;;;;;38.40;33.90;;;14.10;99.90;;;;;;4932667;29;21773;-46
2021/06/25 03:08:36;;;;;;;34.23;30.73;;;14.10;99.90;;;;;;4927004;29;20464;-46
2021/06/25 03:11:03;;;;;;;34.10;30.43;;;14.00;99.90;;;;;;4920936;29;20471;-50
2021/06/25 03:13:30;;;;;;;35.67;31.97;;;13.90;99.90;;;;;;4922269;29;20503;-46
2021/06/25 03:15:58;;;;;;;36.27;32.57;;;13.90;99.90;;;;;;4924188;29;20827;-52
2021/06/25 03:18:25;;;;;;;41.13;33.00;;;13.90;99.90;;;;;;4925373;29;20759;-48
2021/06/25 03:20:52;;;;;;;38.17;34.13;;;13.90;99.90;;;;;;4925719;29;20473;-48
2021/06/25 03:23:21;;;;;;;35.47;31.60;;;13.90;99.90;;;;;;4928875;29;20472;-52
2021/06/25 03:25:48;;;;;;;35.03;31.33;;;13.80;99.90;;;;;;4924461;29;20460;-50
2021/06/25 03:28:15;;;;;;;37.00;33.00;;;13.80;99.90;;;;;;4925494;29;20905;-52
2021/06/25 03:30:46;;;;;;;37.23;32.63;;;13.80;99.90;;;;;;4942610;29;20471;-54
2021/06/25 03:33:13;;;;;;;35.40;31.50;;;13.80;99.90;;;;;;4943343;29;20767;-50
2021/06/25 03:35:40;;;;;;;33.50;29.90;;;13.80;99.90;;;;;;4940300;29;20486;-55
2021/06/25 03:38:10;;;;;;;38.17;30.50;;;13.80;99.90;;;;;;4927198;29;21143;-50
2021/06/25 03:40:39;;;;;;;34.83;31.03;;;13.70;99.90;;;;;;4927593;29;20479;-49
2021/06/25 03:43:08;;;;;;;35.33;31.57;;;13.70;99.90;;;;;;4924142;29;20464;-50
2021/06/25 03:45:36;;;;;;;36.10;32.33;;;13.70;99.90;;;;;;4924075;29;20518;-49
2021/06/25 03:48:04;;;;;;;36.63;32.90;;;13.60;99.90;;;;;;4924285;29;20550;-46
2021/06/25 03:50:31;;;;;;;36.23;32.30;;;13.60;99.90;;;;;;4923998;29;20472;-46
2021/06/25 03:52:58;;;;;;;38.53;31.90;;;13.60;99.90;;;;;;4924420;29;20573;-45
2021/06/25 03:55:25;;;;;;;35.73;31.90;;;13.60;99.90;;;;;;4924105;29;20483;-47
2021/06/25 03:57:54;;;;;;;35.37;31.73;;;13.60;99.90;;;;;;4924383;29;20479;-47
2021/06/25 04:00:21;;;;;;;34.10;29.97;;;13.60;99.90;;;;;;4939562;29;20494;-50
2021/06/25 04:02:50;;;;;;;32.87;29.37;;;13.60;99.90;;;;;;4925327;29;20484;-48
2021/06/25 04:05:18;;;;;;;34.80;31.20;;;13.60;99.90;;;;;;4937259;29;20971;-48
2021/06/25 04:07:46;;;;;;;35.73;31.40;;;13.70;99.90;;;;;;4932634;29;20562;-47
2021/06/25 04:10:14;;;;;;;34.77;30.43;;;13.70;99.90;;;;;;4924022;29;20468;-51
2021/06/25 04:12:41;;;;;;;32.93;29.50;;;13.70;99.90;;;;;;4926823;29;20459;-48
2021/06/25 04:15:10;;;;;;;34.73;30.17;;;13.80;99.90;;;;;;4925947;29;20769;-49
2021/06/25 04:17:37;;;;;;;34.57;30.90;;;13.90;99.90;;;;;;4923606;29;20476;-46
2021/06/25 04:20:06;;;;;;;34.13;30.10;;;13.90;99.90;;;;;;4924010;29;20472;-54
2021/06/25 04:22:33;;;;;;;34.10;30.40;;;13.90;99.90;;;;;;4926627;29;20468;-51
2021/06/25 04:25:00;;;;;;;35.87;31.97;;;13.90;99.90;;;;;;4922912;29;20548;-52
2021/06/25 04:27:29;;;;;;;38.07;32.40;;;13.90;99.90;;;;;;4923277;29;20765;-52
2021/06/25 04:29:57;;;;;;;34.50;30.73;;;13.90;99.90;;;;;;4935762;29;20495;-51
2021/06/25 04:32:27;;;;;;;33.77;30.07;;;13.90;99.90;;;;;;4941835;29;20865;-53
2021/06/25 04:34:54;;;;;;;39.30;32.90;;;13.90;99.90;;;;;;4941702;29;20503;-45
2021/06/25 04:37:21;;;;;;;36.47;30.63;;;13.90;99.90;;;;;;4941583;29;20573;-49
2021/06/25 04:39:53;;;;;;;36.93;32.77;;;13.90;99.90;;;;;;4929417;29;20460;-50
2021/06/25 04:42:23;;;;;;;37.67;32.00;;;14.00;99.90;;;;;;4923395;29;20897;-49
2021/06/25 04:44:50;;;;;;;36.67;32.87;;;14.00;99.90;;;;;;4923296;29;20645;-46
2021/06/25 04:47:17;;;;;;;39.33;32.90;;;14.10;99.90;;;;;;4923252;29;20472;-46
2021/06/25 04:49:46;;;;;;;36.50;32.47;;;14.30;99.90;;;;;;4923240;29;20496;-45
2021/06/25 04:52:13;;;;;;;38.13;32.47;;;14.40;99.90;;;;;;4923064;29;20536;-45
2021/06/25 05:30:33;;;;;;;43.50;33.40;;;15.50;99.90;;;;;;5221525;23;20837;-45
2021/06/25 05:33:01;;;;;;;37.33;32.10;;;15.60;99.90;;;;;;4999619;28;20484;-44
2021/06/25 05:35:31;;;;;;;37.83;31.73;;;15.60;99.90;;;;;;4999027;28;20476;-44
2021/06/25 05:37:58;;;;;;;35.90;32.50;;;15.70;99.90;;;;;;4999069;28;20473;-46
2021/06/25 05:40:29;;;;;;;34.57;30.27;;;15.70;99.90;;;;;;4998115;28;20484;-45
2021/06/25 05:42:56;;;;;;;35.47;31.87;;;15.90;99.90;;;;;;4998972;28;20758;-45
2021/06/25 05:45:24;;;;;;;37.70;33.40;;;16.20;99.90;;;;;;4998118;28;20472;-47
2021/06/25 05:47:55;;;;;;;34.30;30.00;;;16.60;99.90;;;;;;4998357;28;20483;-45
2021/06/25 05:50:22;;;;;;;35.80;31.90;;;16.70;99.90;;;;;;4998796;28;20560;-46
2021/06/25 05:52:49;;;;;;;38.00;32.77;;;16.90;99.90;;;;;;4998325;28;20905;-46
2021/06/25 05:55:17;;;;;;;43.40;33.70;;;16.90;99.90;;;;;;4998298;28;20476;-46
2021/06/25 05:57:46;;;;;;;42.30;35.67;;;16.90;99.90;;;;;;4998854;28;20757;-45
2021/06/25 06:00:13;;;;;;;39.63;34.20;;;16.90;99.90;;;;;;4996786;28;20888;-49
2021/06/25 06:02:41;;;;;;;38.47;34.27;;;16.70;99.90;;;;;;4994161;28;20472;-46
2021/06/25 06:05:10;;;;;;;41.37;34.83;;;16.80;99.90;;;;;;4993838;28;20476;-52
2021/06/25 06:07:38;;;;;;;38.73;33.50;;;17.10;99.90;;;;;;4997223;28;20470;-51
2021/06/25 06:10:09;;;;;;;37.47;33.17;;;17.40;99.90;;;;;;4997720;28;20469;-50
2021/06/25 06:12:36;;;;;;;38.60;34.60;;;17.40;99.90;;;;;;4997676;28;20461;-49
2021/06/25 06:15:04;;;;;;;39.03;34.80;;;17.50;99.90;;;;;;4998270;28;20536;-47
2021/06/25 06:17:31;;;;;;;37.57;33.57;;;17.60;99.90;;;;;;4997934;28;20472;-48
2021/06/25 06:19:58;;;;;;;38.00;33.33;;;17.80;99.90;;;;;;4998766;28;20500;-53
2021/06/25 06:33:33;;;;;;;37.17;33.30;;;18.50;99.90;;;;;;4974781;28;20544;-51
2021/06/25 06:36:03;;;;;;;35.83;32.23;;;19.00;99.90;;;;;;4972484;28;20472;-46
2021/06/25 06:38:31;;;;;;;33.40;29.97;;;19.20;99.90;;;;;;4977180;28;20581;-55
2021/06/25 06:40:58;;;;;;;34.20;30.50;;;19.80;99.90;;;;;;4977174;28;20485;-50
2021/06/25 06:43:25;;;;;;;29.70;26.60;;;19.80;99.90;;;;;;4977979;28;20458;-51
2021/06/25 06:45:53;;;;;;;27.67;24.80;;;19.80;97.10;;;;;;4977962;28;20469;-46
2021/06/25 06:48:22;;;;;;;27.03;24.53;;;19.80;96.10;;;;;;4977849;28;20476;-52
2021/06/25 06:50:49;;;;;;;27.60;24.80;;;19.80;94.50;;;;;;4978015;28;20470;-47
2021/06/25 06:53:16;;;;;;;26.43;23.87;;;19.80;93.60;;;;;;4977788;28;20568;-47
2021/06/25 06:55:45;;;;;;;22.13;19.90;;;19.50;91.50;;;;;;4978057;28;20477;-46
2021/06/25 06:58:14;;;;;;;21.63;19.63;;;19.30;88.40;;;;;;4978139;28;20481;-49
2021/06/25 07:00:41;;;;;;;19.47;17.57;;;19.40;85.00;;;;;;4978751;28;20504;-50
2021/06/25 07:03:09;;;;;;;14.97;13.57;;;19.30;81.00;;;;;;4972131;28;20904;-48
2021/06/25 07:05:36;;;;;;;11.83;10.67;;;19.10;68.70;;;;;;4974193;28;20483;-51
2021/06/25 07:08:03;;;;;;;10.50;9.50;;;19.50;71.20;;;;;;4978793;28;20473;-47
2021/06/25 07:10:34;;;;;;;12.27;10.97;;;19.90;65.50;;;;;;4978313;28;20473;-46
2021/06/25 07:13:02;;;;;;;12.47;11.47;;;20.10;66.70;;;;;;4978640;28;20467;-46
2021/06/25 07:15:29;;;;;;;11.73;10.73;;;20.40;67.90;;;;;;4977970;28;20508;-47
2021/06/25 07:17:57;;;;;;;13.60;11.53;;;20.30;67.00;;;;;;4976038;28;20484;-48
2021/06/25 07:20:24;;;;;;;14.43;13.13;;;20.50;68.70;;;;;;4977497;28;20478;-46
2021/06/25 07:22:51;;;;;;;13.67;12.37;;;20.60;71.60;;;;;;4978092;28;20474;-48
2021/06/25 07:25:18;;;;;;;13.90;12.70;;;20.50;71.40;;;;;;4978021;28;20473;-51
2021/06/25 07:27:45;;;;;;;13.67;12.57;;;20.80;72.20;;;;;;4976965;28;20476;-49
2021/06/25 07:30:15;;;;;;;14.50;13.20;;;21.20;71.90;;;;;;4977740;28;20540;-48
2021/06/25 07:32:45;;;;;;;15.83;14.40;;;21.30;72.60;;;;;;4978126;28;20886;-49
2021/06/25 07:35:12;;;;;;;14.20;13.10;;;21.50;72.50;;;;;;4978118;28;20496;-49
2021/06/25 07:37:43;;;;;;;15.07;13.77;;;21.60;70.50;;;;;;4978389;28;20469;-48
2021/06/25 07:40:12;;;;;;;17.00;15.30;;;21.50;68.90;;;;;;4977884;28;20477;-47
2021/06/25 07:42:39;;;;;;;14.50;13.23;;;21.50;69.20;;;;;;4977216;28;20492;-50
2021/06/25 07:45:09;;;;;;;14.97;13.57;;;22.00;73.90;;;;;;4979100;28;20462;-48
2021/06/25 07:47:38;;;;;;;17.40;15.73;;;22.30;70.10;;;;;;4977794;28;20471;-47
2021/06/25 07:50:10;;;;;;;16.30;14.80;;;22.30;67.80;;;;;;4977475;28;20444;-52
2021/06/25 07:52:38;;;;;;;15.83;14.63;;;22.60;67.90;;;;;;4977858;28;20466;-46
2021/06/25 07:55:07;;;;;;;15.57;14.23;;;22.90;67.20;;;;;;4977852;28;20778;-49
2021/06/25 07:57:34;;;;;;;14.27;12.93;;;22.70;64.10;;;;;;4977473;28;20553;-47
2021/06/25 08:00:06;;;;;;;13.77;12.57;;;22.80;66.60;;;;;;4977772;28;20477;-50
2021/06/25 08:02:36;;;;;;;13.73;12.50;;;23.20;64.00;;;;;;4979491;28;20480;-52
2021/06/25 08:05:08;;;;;;;15.93;14.50;;;23.00;63.10;;;;;;4973184;28;20472;-46
2021/06/25 08:07:38;;;;;;;16.07;14.67;;;22.70;65.00;;;;;;4981326;28;20473;-49
2021/06/25 08:10:07;;;;;;;16.37;14.77;;;22.80;64.20;;;;;;4980923;28;20880;-53
2021/06/25 08:12:37;;;;;;;16.23;14.77;;;22.60;63.70;;;;;;4981197;28;20473;-46
2021/06/25 08:15:06;;;;;;;15.73;14.23;;;22.60;64.70;;;;;;4980880;28;20497;-47
2021/06/25 08:17:36;;;;;;;16.07;14.57;;;22.30;63.60;;;;;;4980909;28;20448;-47
2021/06/25 08:20:05;;;;;;;17.80;16.13;;;22.10;63.40;;;;;;4980753;28;20473;-47
2021/06/25 08:22:33;;;;;;;17.20;15.60;;;21.90;64.60;;;;;;4981688;28;20704;-50
2021/06/25 08:25:03;;;;;;;16.90;15.37;;;22.30;67.30;;;;;;4981041;28;20874;-49
2021/06/25 08:27:30;;;;;;;16.13;14.63;;;22.40;65.10;;;;;;4980105;28;20480;-49
2021/06/25 08:29:57;;;;;;;17.60;16.10;;;22.70;70.40;;;;;;4980361;28;20481;-51
2021/06/25 08:32:24;;;;;;;16.73;15.10;;;22.60;65.80;;;;;;4980312;28;20520;-50
2021/06/25 08:34:51;;;;;;;14.90;13.40;;;22.60;65.70;;;;;;4980780;28;20501;-50
2021/06/25 08:37:20;;;;;;;15.60;14.10;;;22.80;68.10;;;;;;4980433;28;20491;-52
2021/06/25 08:39:47;;;;;;;15.67;14.07;;;22.60;65.00;;;;;;4980448;28;20891;-50
2021/06/25 08:42:15;;;;;;;17.10;15.30;;;22.20;65.00;;;;;;4980266;28;20469;-49
2021/06/25 08:44:42;;;;;;;16.83;15.30;;;21.40;67.30;;;;;;4980748;28;20473;-49
2021/06/25 08:47:10;;;;;;;16.70;15.20;;;21.30;68.90;;;;;;4980359;28;20473;-46
2021/06/25 08:49:41;;;;;;;17.13;15.40;;;21.30;72.20;;;;;;4980331;28;20465;-46
2021/06/25 08:52:10;;;;;;;17.27;15.73;;;21.90;69.90;;;;;;4980326;28;20469;-47
2021/06/25 08:54:38;;;;;;;17.87;16.17;;;22.10;68.80;;;;;;4979873;28;20501;-48
2021/06/25 08:57:07;;;;;;;16.70;15.20;;;22.20;66.70;;;;;;4980067;28;20466;-47
2021/06/25 08:59:35;;;;;;;17.90;16.40;;;21.80;67.70;;;;;;4980385;28;20492;-53
2021/06/25 09:02:03;;;;;;;16.60;15.03;;;21.90;70.00;;;;;;4978784;28;20488;-46
2021/06/25 09:04:35;;;;;;;17.80;16.30;;;22.20;70.60;;;;;;4968616;28;20528;-48
2021/06/25 09:07:03;;;;;;;17.20;15.70;;;22.20;69.20;;;;;;4975019;28;20470;-46
2021/06/25 09:09:46;;;;;;;17.60;15.90;;;22.90;69.20;;;;;;4979815;28;20470;-46
2021/06/25 09:12:20;;;;;;;16.80;15.30;;;23.80;68.50;;;;;;4979183;28;20473;-47
2021/06/25 09:15:05;;;;;;;16.80;15.40;;;24.20;67.70;;;;;;4977349;28;20508;-51
2021/06/25 09:17:33;;;;;;;16.30;14.87;;;23.40;64.00;;;;;;4980062;28;20894;-47
2021/06/25 09:20:01;;;;;;;18.37;16.77;;;22.50;64.70;;;;;;4979719;28;20470;-46
2021/06/25 09:22:28;;;;;;;17.70;16.00;;;22.50;67.90;;;;;;4979045;28;20497;-48
2021/06/25 09:25:06;;;;;;;17.17;15.60;;;23.10;67.50;;;;;;4979960;28;20573;-46
2021/06/25 09:27:39;;;;;;;17.20;15.53;;;23.10;66.80;;;;;;4979512;28;20473;-45
2021/06/25 09:30:11;;;;;;;18.50;16.80;;;23.50;66.40;;;;;;4979428;28;20469;-46
2021/06/25 09:32:43;;;;;;;16.97;15.37;;;24.40;64.00;;;;;;4979135;28;20500;-50
2021/06/25 09:35:15;;;;;;;17.23;15.53;;;24.70;62.00;;;;;;4979744;28;20510;-46
2021/06/25 09:37:44;;;;;;;16.97;15.47;;;25.00;62.60;;;;;;4979044;28;20484;-47
2021/06/25 09:40:17;;;;;;;17.00;15.50;;;24.80;59.10;;;;;;4979575;28;20841;-44
2021/06/25 09:42:47;;;;;;;17.33;15.93;;;24.30;60.90;;;;;;4979287;28;20903;-48
2021/06/25 09:45:17;;;;;;;16.43;14.47;;;23.90;59.60;;;;;;4979057;28;20472;-51
2021/06/25 09:47:46;;;;;;;17.50;15.97;;;23.50;61.90;;;;;;4979291;28;20470;-50
2021/06/25 09:50:15;;;;;;;17.63;16.13;;;23.40;63.40;;;;;;4979241;28;20470;-47
2021/06/25 09:52:51;;;;;;;19.60;17.63;;;23.20;62.60;;;;;;4978327;28;20496;-47
2021/06/25 09:55:24;;;;;;;15.33;13.83;;;22.50;63.20;;;;;;4972567;28;20543;-45
2021/06/25 09:58:21;;;;;;;17.33;15.83;;;23.00;67.50;;;;;;4979031;28;20769;-47
2021/06/25 10:03:37;;;;;;;17.37;15.73;;;23.40;64.00;;;;;;4972434;28;20584;-50
2021/06/25 10:06:13;;;;;;;16.33;14.77;;;23.20;64.00;;;;;;4974205;28;20805;-52
2021/06/25 10:08:45;;;;;;;16.40;14.90;;;23.50;63.70;;;;;;4978738;28;20898;-52
2021/06/25 10:11:15;;;;;;;17.47;15.87;;;23.40;62.00;;;;;;4978840;28;20469;-53
2021/06/25 10:51:25;;;;;;;19.10;17.47;;;25.20;60.80;;;;;;5083694;23;20508;-53
2021/06/25 10:54:20;;;;;;;;;;;;;;;;;;;;;
2021/06/25 10:57:06;;;;;;;18.63;17.10;;;25.40;59.70;;;;;;4998155;28;20457;-54
2021/06/25 10:59:44;;;;;;;18.60;16.77;;;23.80;58.60;;;;;;4996250;28;20535;-53
2021/06/25 11:02:13;;;;;;;17.73;16.03;;;23.20;62.10;;;;;;4997519;28;20468;-48
2021/06/25 11:04:42;;;;;;;17.50;15.57;;;23.20;63.00;;;;;;4985935;28;20479;-50
2021/06/25 11:07:15;;;;;;;17.67;15.93;;;23.30;63.00;;;;;;4997308;28;20488;-52
2021/06/25 11:09:57;;;;;;;19.20;17.60;;;23.10;64.40;;;;;;4991394;28;20464;-47
2021/06/25 11:12:26;;;;;;;17.30;15.13;;;23.40;65.70;;;;;;4997048;28;20475;-51
2021/06/25 11:14:55;;;;;;;18.43;16.83;;;23.60;64.00;;;;;;4996789;28;20555;-47
2021/06/25 11:17:44;;;;;;;17.43;14.20;;;23.80;64.10;;;;;;4996960;28;20508;-50
2021/06/25 11:20:19;;;;;;;17.13;15.73;;;24.20;63.70;;;;;;4997166;28;20747;-53
2021/06/25 11:23:01;;;;;;;18.20;16.60;;;24.60;61.90;;;;;;4997223;28;20769;-47
2021/06/25 11:25:45;;;;;;;19.17;17.43;;;24.60;61.30;;;;;;4997372;28;20754;-47
2021/06/25 11:28:37;;;;;;;16.73;15.23;;;25.20;61.20;;;;;;4996240;28;20475;-52
2021/06/25 11:31:26;;;;;;;17.00;15.70;;;25.90;60.70;;;;;;4997341;28;20469;-51
2021/06/25 11:33:56;;;;;;;17.67;16.20;;;25.50;57.90;;;;;;4994007;28;20488;-50
2021/06/25 11:36:30;;;;;;;17.03;15.50;;;25.30;57.30;;;;;;5000110;28;20475;-50
2021/06/25 11:39:32;;;;;;;17.73;16.10;;;25.30;58.80;;;;;;5000754;28;20493;-48
2021/06/25 11:42:01;;;;;;;16.90;15.30;;;25.50;57.30;;;;;;4991297;28;20475;-49
2021/06/25 12:22:18;;;;;;;14.47;13.27;;;26.90;51.60;;;;;;4971435;28;20769;-47
2021/06/25 12:24:50;;;;;;;14.27;13.10;;;26.50;51.70;;;;;;4980664;28;20480;-50
2021/06/25 12:27:17;;;;;;;12.10;11.10;;;27.30;54.70;;;;;;4980772;28;20469;-51
2021/06/25 12:29:46;;;;;;;15.23;13.93;;;27.60;53.20;;;;;;4966375;28;20474;-49
2021/06/25 12:32:21;;;;;;;13.83;12.83;;;27.90;50.60;;;;;;4962306;28;20743;-47
2021/06/25 12:34:57;;;;;;;13.60;12.60;;;27.40;50.30;;;;;;4961932;28;20466;-48
2021/06/25 12:37:26;;;;;;;14.40;13.13;;;26.90;50.30;;;;;;4961503;28;20473;-48
2021/06/25 12:39:53;;;;;;;13.70;12.63;;;26.40;51.20;;;;;;4973894;28;20772;-47
2021/06/25 12:42:28;;;;;;;14.50;13.20;;;26.30;53.20;;;;;;4961458;28;20822;-51
2021/06/25 12:44:56;;;;;;;12.90;11.60;;;25.90;53.00;;;;;;4961621;28;20552;-48
2021/06/25 12:47:24;;;;;;;15.43;13.87;;;25.40;53.10;;;;;;4960270;28;20475;-48
2021/06/25 12:49:51;;;;;;;14.57;13.50;;;24.80;53.70;;;;;;4961432;28;20478;-48
2021/06/25 12:52:23;;;;;;;16.10;14.60;;;24.80;55.70;;;;;;4961345;28;20727;-49
2021/06/25 12:54:54;;;;;;;16.00;14.60;;;25.20;56.70;;;;;;4961496;28;20791;-46
2021/06/25 12:57:21;;;;;;;13.50;12.33;;;25.40;54.20;;;;;;4960963;28;20474;-50
2021/06/25 12:59:53;;;;;;;14.43;13.30;;;25.50;55.50;;;;;;4964252;28;20839;-45
2021/06/25 13:02:21;;;;;;;15.90;14.50;;;26.30;54.60;;;;;;4979948;28;20481;-46
2021/06/25 13:04:53;;;;;;;14.07;13.00;;;25.90;55.20;;;;;;4958574;28;20478;-45
2021/06/25 13:07:23;;;;;;;14.23;13.03;;;27.30;52.70;;;;;;4969436;28;20824;-51
2021/06/25 13:09:54;;;;;;;13.83;12.73;;;28.10;51.00;;;;;;4976007;28;20474;-49
2021/06/25 13:12:24;;;;;;;14.43;13.20;;;27.40;49.40;;;;;;4978477;28;20477;-52
2021/06/25 13:14:56;;;;;;;14.97;13.67;;;26.80;51.00;;;;;;4978357;28;20876;-51
2021/06/25 13:17:25;;;;;;;13.90;12.70;;;26.70;52.10;;;;;;4979720;28;20772;-48
2021/06/25 13:20:00;;;;;;;12.80;11.80;;;27.00;51.20;;;;;;4954798;28;20466;-49
2021/06/25 13:59:41;;;;;;;14.17;12.90;;;27.20;50.30;;;;;;4622184;23;3072962;-53
2021/06/25 14:02:08;;;;;;;15.67;14.27;;;27.10;51.00;;;;;;4979406;28;20527;-47
2021/06/25 14:04:50;;;;;;;15.43;14.00;;;27.10;51.10;;;;;;4967893;28;20497;-51
2021/06/25 14:07:20;;;;;;;13.17;12.17;;;26.70;52.10;;;;;;4967041;28;20461;-49
2021/06/25 14:09:49;;;;;;;15.30;14.20;;;26.50;53.20;;;;;;4978762;28;20461;-48
2021/06/25 14:12:17;;;;;;;16.13;14.77;;;26.80;51.90;;;;;;4977809;28;20564;-52
2021/06/25 14:14:48;;;;;;;17.50;16.20;;;27.10;51.00;;;;;;4977853;28;20899;-50
2021/06/25 14:17:15;;;;;;;14.90;13.70;;;26.90;50.70;;;;;;4978492;28;20865;-47
2021/06/25 14:19:43;;;;;;;15.03;13.53;;;26.40;51.80;;;;;;4978800;28;20560;-50
2021/06/25 14:22:14;;;;;;;15.07;13.70;;;26.10;51.70;;;;;;4978129;28;20481;-54
2021/06/25 14:24:41;;;;;;;15.90;14.50;;;25.90;51.80;;;;;;4978929;28;20497;-56
2021/06/25 14:27:09;;;;;;;14.87;13.67;;;26.10;52.50;;;;;;4977556;28;20476;-55
2021/06/25 14:29:36;;;;;;;14.33;13.30;;;26.30;52.50;;;;;;4978153;28;20480;-55
2021/06/25 14:32:05;;;;;;;14.13;12.97;;;26.30;51.60;;;;;;4978893;28;20475;-56
2021/06/25 14:34:32;;;;;;;15.43;13.83;;;26.60;51.10;;;;;;4978036;28;20472;-54
2021/06/25 14:36:59;;;;;;;15.60;14.30;;;26.80;51.80;;;;;;4978274;28;20502;-52
2021/06/25 14:39:26;;;;;;;14.43;13.20;;;26.90;50.00;;;;;;4978279;28;20909;-52
2021/06/25 14:41:54;;;;;;;13.43;12.30;;;27.30;49.50;;;;;;4977983;28;20473;-49
2021/06/25 14:44:21;;;;;;;14.73;13.63;;;27.00;49.60;;;;;;4978155;28;20469;-48
2021/06/25 14:46:48;;;;;;;14.40;13.30;;;26.40;50.10;;;;;;4977485;28;20466;-48
2021/06/25 14:49:22;;;;;;;15.40;14.10;;;25.70;51.60;;;;;;4978384;28;20506;-49
2021/06/25 14:51:50;;;;;;;14.30;13.10;;;25.60;51.50;;;;;;4978196;28;20509;-49
2021/06/25 14:54:17;;;;;;;14.33;13.20;;;25.30;51.70;;;;;;4978154;28;20473;-49
2021/06/25 14:56:44;;;;;;;13.97;12.97;;;25.00;52.20;;;;;;4977715;28;20501;-49
2021/06/25 14:59:11;;;;;;;14.07;13.00;;;25.00;52.40;;;;;;4978115;28;20509;-47
2021/06/25 15:01:40;;;;;;;16.60;15.20;;;25.00;52.60;;;;;;4978212;28;20473;-46
2021/06/25 15:04:07;;;;;;;14.60;13.60;;;24.80;53.00;;;;;;4968473;28;20485;-50
2021/06/25 15:06:35;;;;;;;15.20;14.00;;;24.60;53.40;;;;;;4977183;28;20476;-47
2021/06/25 15:09:03;;;;;;;15.00;13.70;;;24.40;54.00;;;;;;4977556;28;20462;-46
2021/06/25 15:45:57;;;;;;;16.73;14.13;;;23.80;57.40;;;;;;5370885;23;20489;-53
2021/06/25 15:48:27;;;;;;;15.83;14.47;;;23.80;56.40;;;;;;4996402;28;20465;-49
2021/06/25 15:50:54;;;;;;;13.70;12.70;;;23.90;55.80;;;;;;4998249;28;20469;-45
2021/06/25 15:53:21;;;;;;;14.93;13.53;;;24.00;55.60;;;;;;4996438;28;20465;-52
2021/06/25 15:55:48;;;;;;;15.00;13.70;;;24.00;55.80;;;;;;4996866;28;20535;-49
2021/06/25 15:58:16;;;;;;;16.60;15.00;;;24.10;54.90;;;;;;4996788;28;20458;-49
2021/06/25 16:00:43;;;;;;;15.00;13.70;;;24.40;55.20;;;;;;4996794;28;20876;-47
2021/06/25 16:03:12;;;;;;;14.70;13.27;;;24.40;55.60;;;;;;4989592;28;20476;-49
2021/06/25 16:05:39;;;;;;;14.00;12.87;;;24.20;55.30;;;;;;4989045;28;20865;-52
2021/06/25 16:08:10;;;;;;;15.70;14.40;;;24.20;55.60;;;;;;4990589;28;20497;-48
2021/06/25 16:10:38;;;;;;;16.47;15.17;;;24.00;57.30;;;;;;4997116;28;20506;-51
2021/06/25 16:13:09;;;;;;;14.33;13.13;;;24.00;57.20;;;;;;4996229;28;20456;-52
2021/06/25 16:15:37;;;;;;;13.50;12.43;;;23.70;57.70;;;;;;4990647;28;20825;-46
2021/06/25 16:18:10;;;;;;;15.07;13.97;;;23.60;58.20;;;;;;4990899;28;20443;-48
2021/06/25 16:20:38;;;;;;;15.07;13.77;;;23.40;57.60;;;;;;4991593;28;20468;-50
2021/06/25 16:23:06;;;;;;;14.20;13.00;;;23.40;59.00;;;;;;4998738;28;20468;-50
2021/06/25 16:25:37;;;;;;;14.73;13.53;;;23.20;58.50;;;;;;5000449;28;20820;-51
2021/06/25 16:28:04;;;;;;;14.47;13.27;;;23.20;59.60;;;;;;5000051;28;20476;-48
2021/06/25 16:30:31;;;;;;;13.43;12.23;;;23.30;58.80;;;;;;4999109;28;20483;-54
2021/06/25 16:33:00;;;;;;;14.20;13.10;;;23.50;59.60;;;;;;5000734;28;20469;-45
2021/06/25 16:35:28;;;;;;;16.10;14.47;;;23.40;59.20;;;;;;4999927;28;20479;-47